BAH weather

Bahrain International Airport
Manama, Muharraq Governorate, Bahrain

Public forecast

Using degrees Celsius for public forecast. Weather courtesy of forecast.io.

Current aviation weather report (METAR) for Bahrain International Airport

Retrieved 2020/05/30 23:30 UTC (18 minutes ago):

OBBI 302330Z 29007KT CAVOK 32/22 Q1003 NOSIG

Aviation forecast (TAF) for Bahrain International Airport

Retrieved 2020/05/30 18:00 UTC (6 hours ago):

TAF OBBI 301700Z 3018/0100 33007KT CAVOK BECMG 3103/3105 34017KT BECMG 3115/3117 32006KT